MP3/FLAC

‹ prev 2022-05-31 next › 441 release(s) · 54,47 GB · filter: day
Release Group Size Files Date ↓
VA-Ox_Compilation_162-MAG-2022-SDR SDR 150,33 MB 29 2022-05-31
Alta_Rossa-Void_Of_An_Era-WEB-2022-SDR SDR 69,47 MB 11 2022-05-31
Selected_Dream_Memories_-_Beyond_The_Forest_(CVR022)-WEB-2022-TR TR 61,50 MB 9 2022-05-31
Ann_Christine_Ruuth_-_Jag_Kom_Inte_Ut_Jag_Blev_Mig_Sjaelv-AUDiOBOOK-WEB-SE-2022-CRAViNGS_iNT CRAViNGS_iNT 213,87 MB 4 2022-05-31
Snuffo_-_Joyland_EP_(DARKLP02)-WEB-2022-TR TR 83,21 MB 9 2022-05-31
Teqmun_-_Phototropism_EP_(SO005)-WEB-2022-TR TR 66,00 MB 10 2022-05-31
Annie_Reuterskioeld_-_Naer_Du_Doer_Ska_Jag_Vara_Naera-AUDiOBOOK-WEB-SE-2022-CRAViNGS_iNT CRAViNGS_iNT 180,20 MB 4 2022-05-31
Annika_Thoernros_-_Patient_14_3_Att_Oeverleva_En_Trafikolycka-AUDiOBOOK-WEB-SE-2022-CRAViNGS_iNT CRAViNGS_iNT 156,98 MB 4 2022-05-31
Argy_(UK)-The_Dizko-(WB010)-WEB-2022-wAx wAx 24,80 MB 5 2022-05-31
Sheef_Lentzki-Twice-(RR017)-WEB-2014-AOV AOV 36,82 MB 6 2022-05-31
Axel_Odelberg_-_Droemmarnas_Tid_Beraettelsen_Om_Affaersgeniet_Axel_Johnson-AUDiOBOOK-WEB-SE-2022-CRAViNGS_iNT CRAViNGS_iNT 433,60 MB 4 2022-05-31
Fruhwerk-Dancing_Leads-(RR440)-WEB-2022-AOV AOV 46,84 MB 7 2022-05-31
Benjamin_Dousa_-_Snoeflingorna_Faller_Oever_Husby-AUDiOBOOK-WEB-SE-2022-CRAViNGS_iNT CRAViNGS_iNT 70,09 MB 4 2022-05-31
DJ_Chrysalis_-_What_Came_First_and_Why_Does_It_Matter_(PP070)-WEB-2022-TR TR 65,55 MB 9 2022-05-31
H1MOD_-_Fractions_(FA002)-WEB-2022-TR TR 38,66 MB 7 2022-05-31
Alvinho_L_Noise-Stone_Heart_EP-(VVR105)-WEB-2022-wAx wAx 95,55 MB 10 2022-05-31
Camila_Cabello-UEFA_Champions_League_Opening_Ceremony_(2022)-2160p-H265-2022-SRPx SRPx 748,96 MB 3 2022-05-31
Lorde-BBC_Radio_1s_Big_Weekend_(2022)-DDC-1080p-x264-2022-SRPx SRPx 1,79 GB 12 2022-05-31
Mimi_Webb-BBC_Radio_1s_Big_Weekend_(2022)-DDC-1080p-x264-2022-SRPx SRPx 1,44 GB 10 2022-05-31
Mabel-BBC_Radio_1s_Big_Weekend_(2022)-DDC-1080p-x264-2022-SRPx SRPx 1,40 GB 10 2022-05-31
Sigrid-BBC_Radio_1s_Big_Weekend_(2022)-DDC-1080p-x264-2022-SRPx SRPx 1,34 GB 9 2022-05-31
Iman_Deeper-What_Is_Gravity-(NG0372)-SINGLE-WEB-2022-wAx wAx 14,12 MB 4 2022-05-31
Anne-Marie-BBC_Radio_1s_Big_Weekend_(2022)-DDC-1080p-x264-2022-SRPx SRPx 1,88 GB 12 2022-05-31
VA-Malices-(PLAY001)-WEB-2021-FALCON FALCON 175,57 MB 14 2022-05-31
VA_-_THE_EXILED_An_Electro_Compilation_By_Venezuelan_Artists_(NSA0021)-WEB-2021-TR TR 88,56 MB 12 2022-05-31
Wirewound_-_Rotordynamics_(SUBSIST161D)-WEB-2022-TR TR 116,83 MB 13 2022-05-31
Ktra_Episode_530-Joey_Riot_and_Kutski_Lethal_Theory_Relaunch-LIVE-WEB-2022-XTC_iNT XTC_iNT 204,20 MB 4 2022-05-31
Divine_Moment-Energy-(BOR061)-SINGLE-WEB-2022-FALCON FALCON 11,50 MB 4 2022-05-31
Fergie_And_Sadrian-Transmutation-(PHARMACY253)-SINGLE-WEB-2022-FALCON FALCON 14,14 MB 4 2022-05-31
Freeman-Universe-(LIOR173)-WEB-2022-FALCON FALCON 32,59 MB 5 2022-05-31
Green_Tolek-Seeds-(PLAY008)-WEB-2022-FALCON FALCON 29,23 MB 5 2022-05-31
Hyperstate_And_Eyeawake-Higher_Self-(PWR250)-SINGLE-WEB-2022-FALCON FALCON 12,04 MB 4 2022-05-31
Killer_Buds-Psycho_Buds_Radio-(NEUR0052)-WEB-2022-FALCON FALCON 51,67 MB 6 2022-05-31
Parus_Major-Ora-(RAR11)-WEB-2018-FALCON FALCON 28,41 MB 5 2022-05-31
Plasma_Corp.-Arche_EP-(VEL062)-WEB-2022-FALCON FALCON 51,10 MB 6 2022-05-31
Professor_Xavier-Neramani-SINGLE-WEB-2022-FALCON FALCON 9,68 MB 4 2022-05-31
Reig-Solar_Wind_Incl._Parus_Major_Remix-(UNDMLD009)-WEB-2022-FALCON FALCON 29,53 MB 5 2022-05-31
Parus_Major-Need_Your_Eyes-(LDR06)-WEB-2019-FALCON FALCON 27,64 MB 5 2022-05-31
Trip_Filter-Piece_Of_Mind-(PWR251)-WEB-2022-FALCON FALCON 57,88 MB 7 2022-05-31
VA-Woh_36-(36)-WEB-2019-FALCON FALCON 48,31 MB 6 2022-05-31
VA-Shamanic_Fiction_Vol._1_Compiled_By_DJ_Wonder-(STRAL13)-WEB-2022-FALCON FALCON 248,86 MB 18 2022-05-31
Wielki-Blanche-(018)-WEB-2017-FALCON FALCON 66,59 MB 8 2022-05-31
Wielki-Excelsior-(MOVD0188)-WEB-2019-FALCON FALCON 71,52 MB 7 2022-05-31
Wielki_And_Michael_Canitrot-Contemplation-SINGLE-WEB-2022-FALCON FALCON 11,12 MB 4 2022-05-31
Germind-Goa_Traveling-(PWR252)-WEB-2022-FALCON FALCON 44,00 MB 6 2022-05-31
ARA-U_-_Black_Hole_EP_(NSA001)-WEB-2020-TR TR 66,64 MB 8 2022-05-31
ARA-U_and_Radioactiveman_-_The_Houghton_Blues_EP_(NSA003)-WEB-2022-TR TR 65,26 MB 8 2022-05-31
Dr._Rhythm_-_Hits_The_Vibes_91-92_(BLOW08DR)-WEB-2022-TR TR 90,19 MB 12 2022-05-31
Jad_and_The_-_Press_Tha_Button_(BONN029)-WEB-2022-TR TR 62,52 MB 9 2022-05-31
Jigsaw_Mind_-_Dance_Trax_Vol_40_(DANCETRAX040)-WEB-2022-TR TR 42,93 MB 7 2022-05-31